createdAt,value
2019-01-15T00:01:13.646Z,100262.39
2019-01-15T00:03:45.991Z,100253.73
2019-01-15T00:06:15.387Z,100253.84
2019-01-15T00:08:45.012Z,100248.19
2019-01-15T00:11:14.555Z,100250.13
2019-01-15T00:13:43.933Z,100255.75
2019-01-15T00:16:13.310Z,100256.34
2019-01-15T00:18:42.676Z,100257.92
2019-01-15T00:21:12.183Z,100253.62
2019-01-15T00:23:41.543Z,100252.73
2019-01-15T00:26:10.920Z,100259.08
2019-01-15T00:28:40.298Z,100259.34
2019-01-15T00:31:09.964Z,100259.22
2019-01-15T00:33:39.335Z,100258.02
2019-01-15T00:36:08.734Z,100263.83
2019-01-15T00:38:38.099Z,100268.34
2019-01-15T00:41:07.940Z,100274.02
2019-01-15T00:43:37.672Z,100276.98
2019-01-15T00:46:07.485Z,100270.19
2019-01-15T00:48:36.858Z,100276.16
2019-01-15T00:51:06.260Z,100273.69
2019-01-15T00:53:35.630Z,100269.38
2019-01-15T00:56:05.608Z,100272.87
2019-01-15T00:58:34.981Z,100272.77
2019-01-15T01:01:05.393Z,100270.87
2019-01-15T01:03:34.790Z,100265.28
2019-01-15T01:06:04.288Z,100270.11
2019-01-15T01:08:33.675Z,100270.40
2019-01-15T01:11:07.310Z,100271.58
2019-01-15T01:13:55.996Z,100265.55
2019-01-15T01:16:25.384Z,100263.28
2019-01-15T01:18:55.120Z,100263.14
2019-01-15T01:21:24.498Z,100264.94
2019-01-15T01:23:55.671Z,100264.58
2019-01-15T01:26:25.300Z,100272.16
2019-01-15T01:28:54.691Z,100268.89
2019-01-15T01:31:24.323Z,100262.84
2019-01-15T01:33:53.709Z,100262.00
2019-01-15T01:36:23.400Z,100266.57
2019-01-15T01:38:53.398Z,100262.33
2019-01-15T01:41:22.767Z,100265.02
2019-01-15T01:43:52.158Z,100270.52
2019-01-15T01:46:21.635Z,100262.51
2019-01-15T01:48:51.276Z,100262.91
2019-01-15T01:51:20.903Z,100264.90
2019-01-15T01:53:52.723Z,100261.70
2019-01-15T01:56:22.374Z,100263.30
2019-01-15T01:58:53.655Z,100264.40
2019-01-15T02:01:23.047Z,100265.60
2019-01-15T02:03:52.531Z,100267.30
2019-01-15T02:06:21.904Z,100267.43
2019-01-15T02:08:51.287Z,100272.69
2019-01-15T02:11:20.732Z,100279.45
2019-01-15T02:13:51.886Z,100294.28
2019-01-15T02:16:21.258Z,100299.92
2019-01-15T02:18:50.634Z,100293.42
2019-01-15T02:21:20.291Z,100291.22
2019-01-15T02:23:49.715Z,100297.99
2019-01-15T02:26:19.084Z,100290.48
2019-01-15T02:28:48.472Z,100290.63
2019-01-15T02:31:19.138Z,100298.57
2019-01-15T02:33:48.546Z,100299.34
2019-01-15T02:36:17.943Z,100285.94
2019-01-15T02:38:47.317Z,100279.45
2019-01-15T02:41:16.716Z,100274.97
2019-01-15T02:43:46.092Z,100276.52
2019-01-15T02:46:15.460Z,100269.14
2019-01-15T02:48:44.915Z,100258.63
2019-01-15T02:51:14.303Z,100270.48
2019-01-15T02:53:43.924Z,100268.17
2019-01-15T02:56:13.319Z,100265.48
2019-01-15T02:58:42.698Z,100257.63
2019-01-15T03:01:12.073Z,100269.31
2019-01-15T03:03:41.487Z,100268.68
2019-01-15T03:06:12.392Z,100275.78
2019-01-15T03:08:41.796Z,100274.11
2019-01-15T03:11:11.197Z,100270.64
2019-01-15T03:13:40.696Z,100276.86
2019-01-15T03:16:10.060Z,100268.81
2019-01-15T03:18:39.545Z,100267.86
2019-01-15T03:21:08.950Z,100268.60
2019-01-15T03:23:38.688Z,100245.69
2019-01-15T03:26:08.067Z,100235.72
2019-01-15T03:28:38.449Z,100233.11
2019-01-15T03:31:07.807Z,100231.33
2019-01-15T03:33:37.423Z,100228.47
2019-01-15T03:36:06.827Z,100228.55
2019-01-15T03:38:36.710Z,100221.57
2019-01-15T03:41:08.955Z,100213.70
2019-01-15T03:43:38.326Z,100213.06
2019-01-15T03:46:07.739Z,100217.89
2019-01-15T03:48:37.117Z,100214.88
2019-01-15T03:51:06.923Z,100211.48
2019-01-15T03:53:36.306Z,100205.33
2019-01-15T03:56:05.960Z,100213.17
2019-01-15T03:58:35.327Z,100206.34
2019-01-15T04:01:05.042Z,100209.52
2019-01-15T04:03:34.422Z,100219.63
2019-01-15T04:06:04.022Z,100212.54
2019-01-15T04:08:33.703Z,100210.75
2019-01-15T04:11:03.092Z,100213.28
2019-01-15T04:13:32.510Z,100203.55
2019-01-15T04:16:01.880Z,100200.10
2019-01-15T04:18:31.256Z,100206.28
2019-01-15T04:21:00.884Z,100204.66
2019-01-15T04:23:30.331Z,100199.30
2019-01-15T04:25:59.728Z,100200.73
2019-01-15T04:28:29.502Z,100200.50
2019-01-15T04:30:58.906Z,100198.41
2019-01-15T04:33:28.574Z,100195.81
2019-01-15T04:35:57.959Z,100191.45
2019-01-15T04:38:28.145Z,100195.47
2019-01-15T04:40:57.621Z,100187.07
2019-01-15T04:43:26.991Z,100185.63
2019-01-15T04:45:56.383Z,100188.64
2019-01-15T04:48:25.846Z,100181.55
2019-01-15T04:50:55.311Z,100190.16
2019-01-15T04:53:24.758Z,100179.14
2019-01-15T04:55:54.148Z,100176.63
2019-01-15T04:58:23.519Z,100173.23
2019-01-15T05:00:52.927Z,100171.63
2019-01-15T05:03:23.988Z,100165.64
2019-01-15T05:05:54.161Z,100168.61
2019-01-15T05:08:23.548Z,100158.08
2019-01-15T05:10:52.928Z,100157.14
2019-01-15T05:13:27.384Z,100153.25
2019-01-15T05:15:53.479Z,100152.56
2019-01-15T05:18:23.089Z,100151.75
2019-01-15T05:20:52.840Z,100151.61
2019-01-15T05:23:22.233Z,100157.12
2019-01-15T05:25:51.635Z,100153.50
2019-01-15T05:28:21.002Z,100144.09
2019-01-15T05:30:50.613Z,100145.07
2019-01-15T05:33:20.004Z,100125.86
2019-01-15T05:35:49.400Z,100132.66
2019-01-15T05:38:19.599Z,100125.06
2019-01-15T05:40:49.101Z,100133.61
2019-01-15T05:43:18.856Z,100141.18
2019-01-15T05:45:49.112Z,100145.98
2019-01-15T05:48:18.485Z,100144.73
2019-01-15T05:50:55.467Z,100139.41
2019-01-15T05:53:24.854Z,100141.53
2019-01-15T05:55:54.225Z,100144.21
2019-01-15T05:58:23.615Z,100145.29
2019-01-15T06:00:53.009Z,100135.73
2019-01-15T06:03:22.434Z,100133.36
2019-01-15T06:05:52.254Z,100133.50
2019-01-15T06:08:21.723Z,100131.74
2019-01-15T06:10:51.407Z,100132.58
2019-01-15T06:13:24.089Z,100132.31
2019-01-15T06:15:53.791Z,100129.72
2019-01-15T06:18:23.198Z,100132.80
2019-01-15T06:20:52.560Z,100129.73
2019-01-15T06:23:22.023Z,100126.17
2019-01-15T06:25:51.447Z,100127.06
2019-01-15T06:28:20.847Z,100129.49
2019-01-15T06:30:50.295Z,100125.98
2019-01-15T06:33:19.689Z,100123.69
2019-01-15T06:35:49.134Z,100130.30
2019-01-15T06:38:18.758Z,100121.80
2019-01-15T06:40:48.609Z,100125.26
2019-01-15T06:43:17.997Z,100119.02
2019-01-15T06:45:47.336Z,100119.55
2019-01-15T06:48:17.127Z,100130.23
2019-01-15T06:50:47.441Z,100127.59
2019-01-15T06:53:17.123Z,100123.45
2019-01-15T06:55:46.732Z,100125.71
2019-01-15T06:58:16.184Z,100119.75
2019-01-15T07:00:45.562Z,100119.02
2019-01-15T07:03:15.015Z,100119.19
2019-01-15T07:05:44.622Z,100120.89
2019-01-15T07:08:15.854Z,100125.73
2019-01-15T07:10:45.301Z,100118.25
2019-01-15T07:13:14.683Z,100118.27
2019-01-15T07:15:45.903Z,100125.83
2019-01-15T07:18:15.556Z,100119.23
2019-01-15T07:20:45.377Z,100128.48
2019-01-15T07:23:14.802Z,100129.08
2019-01-15T07:25:44.464Z,100131.30
2019-01-15T07:28:13.897Z,100131.43
2019-01-15T07:31:08.696Z,100130.39
2019-01-15T07:33:38.083Z,100132.84
2019-01-15T07:36:07.462Z,100132.54
2019-01-15T07:38:36.872Z,100127.72
2019-01-15T07:41:06.251Z,100124.50
2019-01-15T07:43:35.642Z,100134.25
2019-01-15T07:46:05.403Z,100136.67
2019-01-15T07:48:34.785Z,100131.48
2019-01-15T07:51:04.169Z,100142.19
2019-01-15T07:53:33.542Z,100136.48
2019-01-15T07:56:02.916Z,100133.66
2019-01-15T07:58:32.589Z,100132.66
2019-01-15T08:01:02.218Z,100135.69
2019-01-15T08:03:31.587Z,100150.08
2019-01-15T08:06:03.597Z,100156.99
2019-01-15T08:08:33.288Z,100157.95
2019-01-15T08:11:02.674Z,100158.94
2019-01-15T08:13:32.040Z,100161.98
2019-01-15T08:16:01.417Z,100156.92
2019-01-15T08:18:30.791Z,100161.77
2019-01-15T08:21:00.197Z,100163.95
2019-01-15T08:23:29.605Z,100154.88
2019-01-15T08:25:58.953Z,100154.05
2019-01-15T08:28:28.343Z,100153.23
2019-01-15T08:30:57.753Z,100143.61
2019-01-15T08:33:27.117Z,100133.16
2019-01-15T08:35:56.755Z,100122.56
2019-01-15T08:38:26.112Z,100129.23
2019-01-15T08:40:55.505Z,100126.11
2019-01-15T08:43:24.890Z,100123.84
2019-01-15T08:45:55.372Z,100112.51
2019-01-15T08:48:24.889Z,100112.70
2019-01-15T08:50:54.590Z,100115.13
2019-01-15T08:53:24.326Z,100119.66
2019-01-15T08:55:55.482Z,100112.23
2019-01-15T08:58:25.218Z,100111.18
2019-01-15T09:00:54.608Z,100106.31
2019-01-15T09:03:24.243Z,100110.41
2019-01-15T09:05:53.638Z,100110.38
2019-01-15T09:08:23.087Z,100114.86
2019-01-15T09:10:52.548Z,100113.52
2019-01-15T09:13:22.245Z,100114.66
2019-01-15T09:15:51.638Z,100108.23
2019-01-15T09:18:21.179Z,100114.50
2019-01-15T09:20:50.570Z,100115.30
2019-01-15T09:23:20.281Z,100123.13
2019-01-15T09:25:49.740Z,100121.88
2019-01-15T09:28:19.217Z,100118.52
2019-01-15T09:30:48.694Z,100121.51
2019-01-15T09:33:18.310Z,100120.62
2019-01-15T09:35:47.714Z,100114.95
2019-01-15T09:38:17.376Z,100120.23
2019-01-15T09:40:47.020Z,100114.81
2019-01-15T09:43:16.745Z,100118.50
2019-01-15T09:45:46.120Z,100113.52
2019-01-15T09:48:16.530Z,100103.45
2019-01-15T09:50:45.905Z,100112.25
2019-01-15T09:53:15.506Z,100109.28
2019-01-15T09:55:44.913Z,100103.58
2019-01-15T09:58:19.445Z,100092.54
2019-01-15T10:00:48.491Z,100108.96
2019-01-15T10:03:17.902Z,100110.03
2019-01-15T10:05:47.614Z,100095.24
2019-01-15T10:08:17.319Z,100096.08
2019-01-15T10:10:46.689Z,100098.95
2019-01-15T10:13:16.365Z,100100.53
2019-01-15T10:15:45.814Z,100093.05
2019-01-15T10:18:15.211Z,100097.52
2019-01-15T10:20:44.587Z,100093.88
2019-01-15T10:23:18.718Z,100086.05
2019-01-15T10:25:48.924Z,100093.05
2019-01-15T10:28:18.315Z,100084.70
2019-01-15T10:31:00.851Z,100076.80
2019-01-15T10:33:40.802Z,100071.44
2019-01-15T10:36:08.529Z,100070.96
2019-01-15T10:38:37.969Z,100071.02
2019-01-15T10:41:07.819Z,100076.55
2019-01-15T10:43:37.649Z,100064.15
2019-01-15T10:46:07.060Z,100053.17
2019-01-15T10:48:37.679Z,100060.23
2019-01-15T10:51:07.148Z,100051.17
2019-01-15T10:53:36.544Z,100058.19
2019-01-15T10:56:06.027Z,100062.52
2019-01-15T10:58:35.392Z,100068.20
2019-01-15T11:01:05.693Z,100061.22
2019-01-15T11:03:35.076Z,100041.91
2019-01-15T11:06:06.605Z,100050.49
2019-01-15T11:08:35.992Z,100050.30
2019-01-15T11:11:05.811Z,100041.95
2019-01-15T11:13:35.273Z,100036.06
2019-01-15T11:16:04.811Z,100049.48
2019-01-15T11:18:39.528Z,100036.05
2019-01-15T11:21:09.062Z,100032.14
2019-01-15T11:23:38.545Z,100035.83
2019-01-15T11:26:07.920Z,100037.35
2019-01-15T11:28:37.333Z,100035.73
2019-01-15T11:31:07.114Z,100039.97
2019-01-15T11:33:36.527Z,100034.77
2019-01-15T11:36:06.220Z,100036.87
2019-01-15T11:38:37.938Z,100024.90
2019-01-15T11:41:08.489Z,100022.83
2019-01-15T11:43:39.007Z,100025.48
2019-01-15T11:46:08.539Z,100022.12
2019-01-15T11:48:37.933Z,100031.81
2019-01-15T11:51:08.296Z,100015.67
2019-01-15T11:53:37.686Z,100023.94
2019-01-15T11:56:07.485Z,100027.52
2019-01-15T11:58:37.138Z,100018.09
2019-01-15T12:01:08.252Z,100023.42
2019-01-15T12:03:42.171Z,100015.20
2019-01-15T12:06:19.132Z,100006.90
2019-01-15T12:08:52.565Z,100014.20
2019-01-15T12:11:26.551Z,100015.63
2019-01-15T12:13:57.868Z,100018.72
2019-01-15T12:16:37.754Z,100023.41
2019-01-15T12:19:11.529Z,100013.64
2019-01-15T12:21:45.603Z,100013.53
2019-01-15T12:24:28.725Z,100003.64
2019-01-15T12:27:18.027Z,100006.36
2019-01-15T12:30:05.212Z,100015.19
2019-01-15T12:32:39.498Z,100009.87
2019-01-15T12:35:22.559Z,100011.97
2019-01-15T12:38:09.439Z,100022.69
2019-01-15T12:40:55.627Z,100013.63
2019-01-15T12:43:30.630Z,100010.44
2019-01-15T12:46:20.136Z,100009.70
2019-01-15T12:48:53.770Z,100023.97
2019-01-15T12:51:24.859Z,100008.69
2019-01-15T12:54:11.784Z,100013.28
2019-01-15T12:56:51.907Z,100004.09
2019-01-15T12:59:25.625Z,99996.38
2019-01-15T13:02:08.729Z,100001.97
2019-01-15T13:04:49.571Z,99997.31
2019-01-15T13:07:20.706Z,99990.39
2019-01-15T13:09:54.754Z,99985.55
2019-01-15T13:12:34.677Z,99990.66
2019-01-15T13:15:09.614Z,99994.92
2019-01-15T13:17:46.376Z,99992.55
2019-01-15T13:20:29.756Z,99997.67
2019-01-15T13:23:07.610Z,99998.63
2019-01-15T13:25:50.778Z,99996.31
2019-01-15T13:28:21.926Z,99992.48
2019-01-15T13:30:54.767Z,99985.00
2019-01-15T13:33:44.757Z,99992.97
2019-01-15T13:36:31.141Z,99983.91
2019-01-15T13:39:11.102Z,99968.71
2019-01-15T13:41:44.997Z,99978.33
2019-01-15T13:44:34.244Z,99974.88
2019-01-15T13:47:05.346Z,99961.18
2019-01-15T13:49:39.428Z,99966.42
2019-01-15T13:52:16.835Z,99960.55
2019-01-15T13:55:02.657Z,99939.44
2019-01-15T13:57:45.713Z,99954.70
2019-01-15T14:00:25.154Z,99955.23
2019-01-15T14:02:59.352Z,99949.34
2019-01-15T14:05:33.073Z,99955.01
2019-01-15T14:08:06.822Z,99949.03
2019-01-15T14:10:37.972Z,99925.28
2019-01-15T14:13:18.140Z,99942.05
2019-01-15T14:16:01.479Z,99950.61
2019-01-15T14:18:48.642Z,99936.72
2019-01-15T14:21:22.983Z,99945.16
2019-01-15T14:23:54.000Z,99948.92
2019-01-15T14:26:39.937Z,99947.41
2019-01-15T14:29:19.939Z,99948.94
2019-01-15T14:31:56.803Z,99949.78
2019-01-15T14:34:40.031Z,99945.67
2019-01-15T14:37:27.962Z,99949.92
2019-01-15T14:40:01.957Z,99949.53
2019-01-15T14:42:35.696Z,99955.52
2019-01-15T14:45:10.728Z,99955.28
2019-01-15T14:47:45.824Z,99964.15
2019-01-15T14:50:32.155Z,99954.61
2019-01-15T14:53:29.014Z,99954.38
2019-01-15T14:56:16.168Z,99950.98
2019-01-15T14:58:49.832Z,99955.75
2019-01-15T15:01:37.243Z,99945.53
2019-01-15T15:04:10.916Z,99943.56
2019-01-15T15:06:42.232Z,99945.63
2019-01-15T15:09:31.781Z,99946.31
2019-01-15T15:12:02.818Z,99943.19
2019-01-15T15:14:36.522Z,99942.13
2019-01-15T15:17:10.755Z,99941.84
2019-01-15T15:19:47.523Z,99945.44
2019-01-15T15:22:18.525Z,99950.55
2019-01-15T15:25:02.617Z,99946.71
2019-01-15T15:27:45.453Z,99951.19
2019-01-15T15:30:25.005Z,99951.06
2019-01-15T15:33:12.154Z,99950.16
2019-01-15T15:35:45.608Z,99941.69
2019-01-15T15:38:32.998Z,99942.80
2019-01-15T15:41:04.110Z,99933.19
2019-01-15T15:43:40.734Z,99938.45
2019-01-15T15:46:15.112Z,99940.47
2019-01-15T15:48:59.202Z,99951.69
2019-01-15T15:51:32.058Z,99946.23
2019-01-15T15:54:19.857Z,99942.40
2019-01-15T15:57:02.838Z,99942.95
2019-01-15T15:59:39.679Z,99936.98
2019-01-15T16:02:16.455Z,99944.22
2019-01-15T16:05:02.458Z,99940.37
2019-01-15T16:07:39.339Z,99941.09
2019-01-15T16:10:19.185Z,99951.69
2019-01-15T16:12:52.915Z,99946.87
2019-01-15T16:15:35.952Z,99945.36
2019-01-15T16:18:23.899Z,99939.67
2019-01-15T16:20:57.355Z,99946.52
2019-01-15T16:23:28.377Z,99929.00
2019-01-15T16:26:03.689Z,99941.69
2019-01-15T16:28:50.597Z,99934.53
2019-01-15T16:31:37.967Z,99937.53
2019-01-15T16:34:11.951Z,99932.44
2019-01-15T16:36:42.977Z,99930.45
2019-01-15T16:39:19.815Z,99937.06
2019-01-15T16:42:06.843Z,99942.80
2019-01-15T16:44:49.670Z,99937.38
2019-01-15T16:47:20.770Z,99935.16
2019-01-15T16:49:51.784Z,99936.67
2019-01-15T16:52:28.443Z,99932.23
2019-01-15T16:55:15.635Z,99922.36
2019-01-15T16:57:55.793Z,99930.45
2019-01-15T17:00:33.051Z,99922.16
2019-01-15T17:03:04.070Z,99922.79
2019-01-15T17:05:37.518Z,99924.02
2019-01-15T17:08:17.411Z,99928.80
2019-01-15T17:10:50.998Z,99917.09
2019-01-15T17:13:27.999Z,99933.70
2019-01-15T17:15:59.326Z,99922.83
2019-01-15T17:18:44.117Z,99932.12
2019-01-15T17:21:15.475Z,99932.55
2019-01-15T17:24:04.309Z,99919.86
2019-01-15T17:26:50.342Z,99924.80
2019-01-15T17:29:30.037Z,99911.09
2019-01-15T17:32:03.442Z,99925.44
2019-01-15T17:34:34.568Z,99925.64
2019-01-15T17:37:21.684Z,99918.44
2019-01-15T17:39:55.954Z,99900.70
2019-01-15T17:42:26.994Z,99921.20
2019-01-15T17:45:14.815Z,99923.30
2019-01-15T17:47:46.027Z,99919.66
2019-01-15T17:50:33.330Z,99925.16
2019-01-15T17:53:04.415Z,99927.41
2019-01-15T17:55:41.311Z,99925.71
2019-01-15T17:58:15.370Z,99934.25
2019-01-15T18:00:49.074Z,99936.43
2019-01-15T18:03:20.755Z,99933.50
2019-01-15T18:06:08.182Z,99932.98
2019-01-15T18:08:58.484Z,99930.34
2019-01-15T18:11:31.088Z,99926.63
2019-01-15T18:14:17.996Z,99924.09
2019-01-15T18:16:51.700Z,99937.73
2019-01-15T18:19:25.969Z,99924.91
2019-01-15T18:21:57.045Z,99923.86
2019-01-15T18:24:33.913Z,99914.52
2019-01-15T18:27:05.417Z,99906.93
2019-01-15T18:29:36.693Z,99898.55
2019-01-15T18:32:13.872Z,99910.14
2019-01-15T18:34:47.653Z,99901.00
2019-01-15T18:37:21.540Z,99908.59
2019-01-15T18:40:08.421Z,99904.44
2019-01-15T18:42:39.855Z,99913.80
2019-01-15T18:45:28.196Z,99910.37
2019-01-15T18:48:05.042Z,99906.41
2019-01-15T18:50:44.995Z,99908.98
2019-01-15T18:53:21.056Z,99911.16
2019-01-15T18:56:07.005Z,99905.47
2019-01-15T18:58:46.829Z,99912.38
2019-01-15T19:01:26.875Z,99909.22
2019-01-15T19:04:15.754Z,99904.05
2019-01-15T19:07:01.946Z,99908.19
2019-01-15T19:09:33.396Z,99908.67
2019-01-15T19:12:22.308Z,99905.51
2019-01-15T19:14:54.962Z,99905.66
2019-01-15T19:17:44.019Z,99905.70
2019-01-15T19:20:15.148Z,99903.80
2019-01-15T19:23:02.286Z,99904.70
2019-01-15T19:25:41.554Z,99896.25
2019-01-15T19:28:18.426Z,99896.57
2019-01-15T19:30:49.779Z,99891.31
2019-01-15T19:33:23.631Z,99896.09
2019-01-15T19:35:54.778Z,99891.94
2019-01-15T19:38:31.690Z,99895.94
2019-01-15T19:41:02.841Z,99887.80
2019-01-15T19:43:42.845Z,99889.30
2019-01-15T19:46:15.862Z,99884.98
2019-01-15T19:48:49.324Z,99892.22
2019-01-15T19:51:36.919Z,99891.30
2019-01-15T19:57:22.448Z,99881.70
2019-01-15T19:59:53.456Z,99885.06
2019-01-15T20:02:33.658Z,99882.49
2019-01-15T20:05:13.994Z,99881.34
2019-01-15T20:07:53.861Z,99882.05
2019-01-15T20:10:25.102Z,99874.73
2019-01-15T20:13:01.980Z,99881.27
2019-01-15T20:15:38.742Z,99881.38
2019-01-15T20:18:21.644Z,99879.53
2019-01-15T20:20:55.348Z,99882.92
2019-01-15T20:23:28.783Z,99882.25
2019-01-15T20:26:15.940Z,99887.63
2019-01-15T20:28:53.090Z,99878.69
2019-01-15T20:31:24.111Z,99885.28
2019-01-15T20:33:55.126Z,99880.06
2019-01-15T20:36:28.555Z,99887.56
2019-01-15T20:39:02.294Z,99888.66
2019-01-15T20:41:35.890Z,99880.08
2019-01-15T20:44:06.995Z,99884.02
2019-01-15T20:46:40.689Z,99874.34
2019-01-15T20:49:11.693Z,99875.52
2019-01-15T20:51:46.002Z,99876.39
2019-01-15T20:54:22.665Z,99869.28
2019-01-15T20:57:05.363Z,99873.30
2019-01-15T20:59:36.366Z,99875.47
2019-01-15T21:02:13.225Z,99874.68
2019-01-15T21:04:49.960Z,99869.42
2019-01-15T21:07:27.197Z,99870.25
2019-01-15T21:09:58.484Z,99863.63
2019-01-15T21:12:29.503Z,99871.56
2019-01-15T21:15:12.728Z,99866.83
2019-01-15T21:17:43.759Z,99860.47
2019-01-15T21:20:15.227Z,99858.81
2019-01-15T21:22:49.208Z,99857.08
2019-01-15T21:25:29.302Z,99852.59
2019-01-15T21:28:09.296Z,99851.56
2019-01-15T21:30:56.434Z,99857.36
2019-01-15T21:33:30.435Z,99844.25
2019-01-15T21:36:01.686Z,99859.73
2019-01-15T21:38:38.341Z,99854.88
2019-01-15T21:41:25.368Z,99860.38
2019-01-15T21:44:08.826Z,99858.28
2019-01-15T21:46:43.013Z,99854.45
2019-01-15T21:49:14.222Z,99866.42
2019-01-15T21:51:51.358Z,99844.47
2019-01-15T21:54:25.355Z,99860.95
2019-01-15T21:57:14.383Z,99857.79
2019-01-15T21:59:57.711Z,99853.48
2019-01-15T22:02:37.971Z,99842.98
2019-01-15T22:05:20.077Z,99805.61
2019-01-15T22:07:53.529Z,99840.14
2019-01-15T22:10:24.613Z,99842.63
2019-01-15T22:13:13.548Z,99835.20
2019-01-15T22:15:47.366Z,99825.52
2019-01-15T22:18:27.439Z,99824.05
2019-01-15T22:21:01.223Z,99823.82
2019-01-15T22:23:32.217Z,99816.04
2019-01-15T22:29:01.152Z,99814.34
2019-01-15T22:31:47.328Z,99819.08
2019-01-15T22:34:24.451Z,99813.70
2019-01-15T22:36:58.163Z,99809.44
2019-01-15T22:39:29.165Z,99805.02
2019-01-15T22:42:05.992Z,99809.76
2019-01-15T22:44:45.904Z,99807.03
2019-01-15T22:47:33.265Z,99800.36
2019-01-15T22:50:22.237Z,99797.47
2019-01-15T22:52:56.237Z,99799.92
2019-01-15T22:55:27.208Z,99793.40
2019-01-15T22:58:01.110Z,99794.03
2019-01-15T23:00:55.481Z,99793.00
2019-01-15T23:03:26.555Z,99788.78
2019-01-15T23:06:00.345Z,99791.90
2019-01-15T23:08:49.642Z,99785.03
2019-01-15T23:11:23.417Z,99786.33
2019-01-15T23:13:56.882Z,99778.83
2019-01-15T23:16:27.894Z,99780.48
2019-01-15T23:18:58.989Z,99778.43
2019-01-15T23:21:30.298Z,99785.27
2019-01-15T23:24:13.200Z,99773.37
2019-01-15T23:26:46.900Z,99771.41
2019-01-15T23:29:34.170Z,99768.01
2019-01-15T23:32:23.158Z,99773.84
2019-01-15T23:35:03.213Z,99771.16
2019-01-15T23:37:52.314Z,99769.94
2019-01-15T23:40:25.857Z,99771.83
2019-01-15T23:43:11.813Z,99768.88
2019-01-15T23:45:46.056Z,99766.23
2019-01-15T23:48:23.148Z,99757.82
2019-01-15T23:51:00.155Z,99768.16
2019-01-15T23:53:45.855Z,99766.15
2019-01-15T23:56:33.457Z,99754.94
2019-01-15T23:59:04.453Z,99752.25
